createdAt,value
2019-01-28T00:01:09.954Z,94.87
2019-01-28T00:03:42.426Z,94.57
2019-01-28T00:06:12.197Z,94.38
2019-01-28T00:08:41.845Z,94.44
2019-01-28T00:11:11.525Z,94.65
2019-01-28T00:13:41.270Z,94.90
2019-01-28T00:16:11.014Z,94.73
2019-01-28T00:18:40.662Z,94.98
2019-01-28T00:21:10.343Z,94.49
2019-01-28T00:23:40.122Z,94.82
2019-01-28T00:26:09.810Z,94.74
2019-01-28T00:28:39.556Z,95.15
2019-01-28T00:31:09.277Z,94.48
2019-01-28T00:33:38.948Z,94.36
2019-01-28T00:36:08.567Z,94.76
2019-01-28T00:38:38.224Z,94.95
2019-01-28T00:41:07.902Z,94.74
2019-01-28T00:43:37.548Z,95.05
2019-01-28T00:46:07.262Z,94.78
2019-01-28T00:48:36.867Z,95.14
2019-01-28T00:51:06.584Z,94.38
2019-01-28T00:53:36.264Z,94.84
2019-01-28T00:56:06.135Z,94.86
2019-01-28T00:58:35.712Z,94.91
2019-01-28T01:01:05.414Z,94.42
2019-01-28T01:03:35.192Z,94.40
2019-01-28T01:06:05.074Z,95.06
2019-01-28T01:08:34.697Z,94.74
2019-01-28T01:11:04.564Z,94.30
2019-01-28T01:13:34.334Z,94.17
2019-01-28T01:16:04.135Z,94.18
2019-01-28T01:18:33.726Z,93.91
2019-01-28T01:21:03.509Z,94.40
2019-01-28T01:23:33.163Z,94.38
2019-01-28T01:26:02.921Z,94.17
2019-01-28T01:28:32.713Z,94.70
2019-01-28T01:31:02.863Z,94.58
2019-01-28T01:33:32.842Z,95.09
2019-01-28T01:36:02.438Z,94.83
2019-01-28T01:38:32.066Z,94.50
2019-01-28T01:41:04.072Z,94.99
2019-01-28T01:43:33.826Z,94.91
2019-01-28T01:46:03.591Z,94.25
2019-01-28T01:48:33.202Z,94.32
2019-01-28T01:51:03.004Z,94.88
2019-01-28T01:53:32.829Z,94.91
2019-01-28T01:56:02.822Z,94.39
2019-01-28T01:58:32.742Z,94.57
2019-01-28T02:01:03.045Z,94.12
2019-01-28T02:03:32.734Z,94.54
2019-01-28T02:06:02.458Z,94.82
2019-01-28T02:08:32.200Z,94.76
2019-01-28T02:11:02.867Z,94.62
2019-01-28T02:13:32.673Z,94.86
2019-01-28T02:16:03.436Z,95.00
2019-01-28T02:18:33.209Z,94.78
2019-01-28T02:21:03.414Z,94.63
2019-01-28T02:23:33.139Z,94.63
2019-01-28T02:26:02.905Z,94.25
2019-01-28T02:28:32.729Z,94.59
2019-01-28T02:31:02.904Z,94.37
2019-01-28T02:33:32.640Z,94.56
2019-01-28T02:36:02.547Z,94.45
2019-01-28T02:38:32.250Z,94.29
2019-01-28T02:41:02.818Z,94.62
2019-01-28T02:43:32.599Z,94.62
2019-01-28T02:46:02.406Z,94.09
2019-01-28T02:48:32.238Z,94.09
2019-01-28T02:51:02.285Z,94.45
2019-01-28T02:53:31.898Z,94.32
2019-01-28T02:56:02.358Z,94.73
2019-01-28T02:58:31.983Z,94.39
2019-01-28T03:01:01.869Z,93.77
2019-01-28T03:03:31.560Z,94.19
2019-01-28T03:06:01.245Z,94.43
2019-01-28T03:08:31.002Z,95.15
2019-01-28T03:11:00.689Z,94.57
2019-01-28T03:13:30.523Z,94.65
2019-01-28T03:16:00.263Z,94.52
2019-01-28T03:18:29.957Z,94.51
2019-01-28T03:20:59.710Z,94.79
2019-01-28T03:23:30.083Z,94.61
2019-01-28T03:25:59.997Z,94.84
2019-01-28T03:28:30.870Z,95.10
2019-01-28T03:31:00.581Z,94.91
2019-01-28T03:33:30.890Z,94.72
2019-01-28T03:36:00.610Z,94.76
2019-01-28T03:38:31.029Z,95.07
2019-01-28T03:41:01.019Z,94.82
2019-01-28T03:43:30.931Z,94.69
2019-01-28T03:46:00.602Z,94.17
2019-01-28T03:48:30.960Z,93.93
2019-01-28T03:51:00.751Z,93.46
2019-01-28T03:53:30.581Z,93.28
2019-01-28T03:56:00.435Z,92.75
2019-01-28T03:58:30.841Z,93.05
2019-01-28T04:01:00.632Z,93.11
2019-01-28T04:03:31.015Z,92.96
2019-01-28T04:06:00.854Z,92.25
2019-01-28T04:08:30.886Z,92.80
2019-01-28T04:11:00.593Z,92.96
2019-01-28T04:13:31.005Z,92.50
2019-01-28T04:16:00.808Z,92.26
2019-01-28T04:18:31.234Z,92.05
2019-01-28T04:21:00.995Z,92.11
2019-01-28T04:23:30.753Z,92.31
2019-01-28T04:26:00.455Z,91.98
2019-01-28T04:28:31.149Z,92.20
2019-01-28T04:31:00.800Z,92.33
2019-01-28T04:33:30.507Z,92.10
2019-01-28T04:36:00.166Z,92.42
2019-01-28T04:38:30.890Z,92.07
2019-01-28T04:41:00.577Z,92.51
2019-01-28T04:43:30.392Z,92.18
2019-01-28T04:46:00.250Z,91.79
2019-01-28T04:48:29.908Z,91.69
2019-01-28T04:50:59.671Z,92.22
2019-01-28T04:53:29.538Z,92.43
2019-01-28T04:55:59.431Z,92.19
2019-01-28T04:58:29.393Z,92.03
2019-01-28T05:00:59.361Z,92.82
2019-01-28T05:03:29.255Z,92.57
2019-01-28T05:05:59.318Z,92.79
2019-01-28T05:08:28.990Z,92.96
2019-01-28T05:10:58.920Z,93.10
2019-01-28T05:13:28.797Z,92.57
2019-01-28T05:15:58.551Z,92.58
2019-01-28T05:18:28.293Z,92.46
2019-01-28T05:20:58.149Z,92.33
2019-01-28T05:23:28.100Z,92.39
2019-01-28T05:25:57.894Z,92.44
2019-01-28T05:28:27.810Z,92.21
2019-01-28T05:30:57.785Z,92.44
2019-01-28T05:33:27.915Z,92.29
2019-01-28T05:35:58.016Z,92.75
2019-01-28T05:38:27.795Z,92.67
2019-01-28T05:40:57.429Z,92.55
2019-01-28T05:43:27.239Z,92.33
2019-01-28T05:45:57.056Z,92.51
2019-01-28T05:48:26.838Z,92.27
2019-01-28T05:50:56.519Z,92.28
2019-01-28T05:53:26.259Z,92.47
2019-01-28T05:55:55.976Z,92.46
2019-01-28T05:58:25.664Z,92.39
2019-01-28T06:00:55.388Z,92.46
2019-01-28T06:03:25.195Z,92.21
2019-01-28T06:05:54.940Z,92.12
2019-01-28T06:08:24.571Z,92.75
2019-01-28T06:10:54.188Z,92.43
2019-01-28T06:13:23.780Z,92.36
2019-01-28T06:15:53.518Z,92.40
2019-01-28T06:18:23.438Z,92.48
2019-01-28T06:20:53.105Z,92.40
2019-01-28T06:23:22.922Z,92.54
2019-01-28T06:25:52.867Z,92.31
2019-01-28T06:28:22.614Z,92.31
2019-01-28T06:30:52.439Z,92.33
2019-01-28T06:33:22.138Z,92.43
2019-01-28T06:35:52.010Z,92.80
2019-01-28T06:38:22.070Z,92.22
2019-01-28T06:40:51.813Z,92.11
2019-01-28T06:43:21.439Z,92.44
2019-01-28T06:45:51.120Z,92.49
2019-01-28T06:48:20.736Z,92.15
2019-01-28T06:50:51.931Z,92.05
2019-01-28T06:53:21.616Z,91.89
2019-01-28T06:55:51.216Z,92.04
2019-01-28T06:58:20.914Z,92.24
2019-01-28T07:00:50.531Z,92.60
2019-01-28T07:03:20.240Z,92.54
2019-01-28T07:05:50.034Z,92.18
2019-01-28T07:08:19.976Z,92.03
2019-01-28T07:10:49.632Z,92.01
2019-01-28T07:13:19.264Z,91.65
2019-01-28T07:15:48.962Z,91.83
2019-01-28T07:18:18.641Z,91.95
2019-01-28T07:20:48.324Z,91.83
2019-01-28T07:23:17.917Z,91.75
2019-01-28T07:25:47.558Z,91.76
2019-01-28T07:28:17.142Z,91.69
2019-01-28T07:30:46.907Z,91.85
2019-01-28T07:33:16.519Z,92.11
2019-01-28T07:35:46.253Z,92.25
2019-01-28T07:38:15.906Z,92.17
2019-01-28T07:40:45.674Z,92.34
2019-01-28T07:43:15.360Z,92.59
2019-01-28T07:45:45.843Z,92.62
2019-01-28T07:48:15.549Z,92.66
2019-01-28T07:50:45.154Z,92.67
2019-01-28T07:53:14.781Z,92.88
2019-01-28T07:55:44.491Z,92.29
2019-01-28T07:58:14.244Z,92.50
2019-01-28T08:00:43.996Z,92.22
2019-01-28T08:03:13.711Z,92.01
2019-01-28T08:05:43.389Z,92.37
2019-01-28T08:08:13.127Z,92.21
2019-01-28T08:10:44.058Z,92.45
2019-01-28T08:13:13.740Z,92.44
2019-01-28T08:15:43.477Z,92.13
2019-01-28T08:18:13.152Z,92.34
2019-01-28T08:20:43.360Z,92.25
2019-01-28T08:23:12.994Z,92.23
2019-01-28T08:25:42.581Z,92.54
2019-01-28T08:28:12.228Z,92.32
2019-01-28T08:30:41.937Z,92.20
2019-01-28T08:33:11.639Z,92.12
2019-01-28T08:35:41.351Z,92.08
2019-01-28T08:38:11.039Z,92.13
2019-01-28T08:40:40.783Z,92.08
2019-01-28T08:43:10.917Z,92.33
2019-01-28T08:45:40.587Z,92.17
2019-01-28T08:48:17.999Z,92.42
2019-01-28T08:50:41.608Z,92.19
2019-01-28T08:53:11.510Z,92.35
2019-01-28T08:55:41.262Z,92.59
2019-01-28T08:58:11.035Z,92.18
2019-01-28T09:00:41.930Z,92.23
2019-01-28T09:03:11.676Z,92.59
2019-01-28T09:05:41.400Z,92.30
2019-01-28T09:08:11.224Z,92.05
2019-01-28T09:10:43.962Z,92.26
2019-01-28T09:13:13.610Z,92.12
2019-01-28T09:15:44.186Z,92.30
2019-01-28T09:18:13.982Z,92.49
2019-01-28T09:20:43.711Z,92.40
2019-01-28T09:23:13.416Z,92.24
2019-01-28T09:25:43.069Z,92.20
2019-01-28T09:28:12.882Z,92.38
2019-01-28T09:30:43.097Z,92.90
2019-01-28T09:33:12.687Z,92.67
2019-01-28T09:35:42.394Z,92.35
2019-01-28T09:38:12.210Z,92.37
2019-01-28T09:40:42.343Z,92.26
2019-01-28T09:43:12.049Z,92.26
2019-01-28T09:45:42.859Z,92.25
2019-01-28T09:48:14.550Z,92.63
2019-01-28T09:50:44.878Z,92.50
2019-01-28T09:53:14.828Z,92.43
2019-01-28T09:55:44.609Z,92.22
2019-01-28T09:58:14.233Z,92.04
2019-01-28T10:00:47.103Z,92.29
2019-01-28T10:03:17.165Z,92.22
2019-01-28T10:05:46.884Z,92.13
2019-01-28T10:08:16.592Z,92.08
2019-01-28T10:10:46.362Z,91.83
2019-01-28T10:13:16.122Z,91.67
2019-01-28T10:15:45.804Z,92.13
2019-01-28T10:18:15.505Z,92.23
2019-01-28T10:20:47.296Z,92.65
2019-01-28T10:23:17.061Z,92.46
2019-01-28T10:25:46.931Z,92.49
2019-01-28T10:28:16.850Z,92.51
2019-01-28T10:30:47.081Z,92.40
2019-01-28T10:33:16.722Z,92.30
2019-01-28T10:35:46.854Z,92.25
2019-01-28T10:38:16.821Z,92.45
2019-01-28T10:40:46.762Z,92.37
2019-01-28T10:43:16.537Z,92.26
2019-01-28T10:45:47.765Z,92.64
2019-01-28T10:48:18.005Z,92.69
2019-01-28T10:50:47.761Z,92.82
2019-01-28T10:53:17.416Z,92.79
2019-01-28T10:55:47.211Z,92.84
2019-01-28T10:58:16.947Z,92.36
2019-01-28T11:00:49.125Z,92.41
2019-01-28T11:03:21.278Z,92.35
2019-01-28T11:05:51.076Z,92.68
2019-01-28T11:08:20.786Z,92.96
2019-01-28T11:10:50.476Z,92.92
2019-01-28T11:13:20.354Z,93.49
2019-01-28T11:15:50.024Z,93.78
2019-01-28T11:18:28.163Z,93.10
2019-01-28T11:20:58.171Z,93.04
2019-01-28T11:23:27.885Z,92.94
2019-01-28T11:25:57.862Z,93.10
2019-01-28T11:28:27.628Z,93.55
2019-01-28T11:31:04.806Z,93.70
2019-01-28T11:33:39.309Z,93.92
2019-01-28T11:36:06.574Z,94.09
2019-01-28T11:38:36.423Z,94.00
2019-01-28T11:41:06.269Z,93.34
2019-01-28T11:43:35.912Z,92.88
2019-01-28T11:46:07.387Z,93.04
2019-01-28T11:48:37.186Z,92.87
2019-01-28T11:51:06.906Z,92.95
2019-01-28T11:53:36.584Z,93.09
2019-01-28T11:56:06.276Z,92.65
2019-01-28T11:58:35.872Z,93.20
2019-01-28T12:01:31.071Z,93.23
2019-01-28T12:04:00.685Z,93.34
2019-01-28T12:06:30.424Z,93.15
2019-01-28T12:09:00.161Z,92.87
2019-01-28T12:11:29.931Z,92.57
2019-01-28T12:13:59.570Z,92.72
2019-01-28T12:16:29.291Z,92.80
2019-01-28T12:18:59.060Z,93.47
2019-01-28T12:21:28.620Z,93.10
2019-01-28T12:23:58.374Z,93.46
2019-01-28T12:26:28.090Z,93.11
2019-01-28T12:28:57.870Z,93.21
2019-01-28T12:31:27.600Z,92.99
2019-01-28T12:33:57.305Z,93.06
2019-01-28T12:36:26.973Z,93.48
2019-01-28T12:38:56.586Z,94.12
2019-01-28T12:41:26.244Z,93.65
2019-01-28T12:43:55.924Z,93.54
2019-01-28T12:46:25.569Z,93.13
2019-01-28T12:48:55.192Z,92.69
2019-01-28T12:51:24.824Z,93.06
2019-01-28T12:53:54.427Z,92.83
2019-01-28T12:56:24.112Z,93.01
2019-01-28T12:58:53.720Z,92.82
2019-01-28T13:01:23.618Z,93.13
2019-01-28T13:03:53.489Z,92.93
2019-01-28T13:06:23.208Z,92.85
2019-01-28T13:08:52.846Z,93.03
2019-01-28T13:11:22.421Z,92.77
2019-01-28T13:13:52.214Z,92.61
2019-01-28T13:16:21.894Z,92.39
2019-01-28T13:18:51.662Z,92.39
2019-01-28T13:21:21.288Z,92.83
2019-01-28T13:23:50.966Z,92.52
2019-01-28T13:26:20.546Z,92.45
2019-01-28T13:28:50.245Z,92.82
2019-01-28T13:31:19.968Z,92.99
2019-01-28T13:33:49.676Z,92.80
2019-01-28T13:36:19.266Z,92.64
2019-01-28T13:38:48.890Z,92.84
2019-01-28T13:41:18.560Z,92.76
2019-01-28T13:43:48.352Z,92.71
2019-01-28T13:46:18.014Z,92.76
2019-01-28T13:48:47.604Z,92.92
2019-01-28T13:51:17.452Z,92.59
2019-01-28T13:53:47.076Z,92.26
2019-01-28T13:56:16.817Z,92.18
2019-01-28T13:58:46.521Z,92.52
2019-01-28T14:01:16.350Z,92.35
2019-01-28T14:03:50.501Z,92.74
2019-01-28T14:06:20.245Z,92.85
2019-01-28T14:08:49.956Z,92.79
2019-01-28T14:11:20.190Z,92.50
2019-01-28T14:13:49.808Z,92.68
2019-01-28T14:16:19.436Z,92.74
2019-01-28T14:18:49.079Z,92.98
2019-01-28T14:21:18.725Z,92.72
2019-01-28T14:23:48.312Z,92.33
2019-01-28T14:26:18.011Z,92.52
2019-01-28T14:28:47.628Z,92.48
2019-01-28T14:31:20.187Z,92.48
2019-01-28T14:33:49.816Z,92.18
2019-01-28T14:36:19.638Z,92.75
2019-01-28T14:38:49.319Z,93.04
2019-01-28T14:41:20.790Z,92.82
2019-01-28T14:43:50.473Z,93.28
2019-01-28T14:46:20.082Z,93.09
2019-01-28T14:48:50.139Z,93.08
2019-01-28T14:51:22.353Z,92.70
2019-01-28T14:53:51.984Z,92.98
2019-01-28T14:56:22.088Z,92.94
2019-01-28T14:58:51.810Z,92.70
2019-01-28T15:01:21.968Z,93.02
2019-01-28T15:03:51.640Z,93.04
2019-01-28T15:06:21.299Z,93.22
2019-01-28T15:08:51.029Z,93.21
2019-01-28T15:11:20.724Z,93.48
2019-01-28T15:13:50.311Z,93.59
2019-01-28T15:16:20.013Z,93.60
2019-01-28T15:18:49.649Z,93.90
2019-01-28T15:21:22.730Z,93.66
2019-01-28T15:23:52.311Z,93.61
2019-01-28T15:26:22.129Z,93.69
2019-01-28T15:28:51.789Z,94.04
2019-01-28T15:31:21.477Z,93.98
2019-01-28T15:33:51.168Z,94.17
2019-01-28T15:36:20.865Z,94.24
2019-01-28T15:38:50.484Z,94.48
2019-01-28T15:41:20.156Z,95.02
2019-01-28T15:43:49.865Z,94.61
2019-01-28T15:46:19.485Z,94.50
2019-01-28T15:48:49.125Z,94.15
2019-01-28T15:51:23.582Z,94.00
2019-01-28T15:53:53.213Z,94.03
2019-01-28T15:56:22.868Z,94.26
2019-01-28T15:58:52.465Z,94.10
2019-01-28T16:01:25.277Z,94.46
2019-01-28T16:03:54.906Z,94.98
2019-01-28T16:06:24.557Z,94.42
2019-01-28T16:08:54.287Z,94.36
2019-01-28T16:11:25.371Z,93.87
2019-01-28T16:13:56.828Z,94.38
2019-01-28T16:16:27.671Z,94.26
2019-01-28T16:19:03.309Z,94.09
2019-01-28T16:21:33.731Z,93.88
2019-01-28T16:24:03.477Z,94.01
2019-01-28T16:26:33.207Z,93.92
2019-01-28T16:29:02.843Z,94.17
2019-01-28T16:31:32.691Z,93.96
2019-01-28T16:34:02.328Z,94.15
2019-01-28T16:36:32.287Z,94.39
2019-01-28T16:39:01.907Z,94.16
2019-01-28T16:41:34.124Z,94.54
2019-01-28T16:44:04.203Z,94.89
2019-01-28T16:46:33.858Z,95.37
2019-01-28T16:49:03.436Z,94.58
2019-01-28T16:51:33.774Z,94.50
2019-01-28T16:54:03.439Z,94.99
2019-01-28T16:56:33.479Z,94.91
2019-01-28T16:59:03.240Z,94.46
2019-01-28T17:01:32.941Z,94.86
2019-01-28T17:04:02.673Z,94.82
2019-01-28T17:06:32.351Z,94.76
2019-01-28T17:09:01.964Z,94.62
2019-01-28T17:11:31.690Z,94.89
2019-01-28T17:14:01.421Z,94.75
2019-01-28T17:16:31.075Z,95.10
2019-01-28T17:19:00.735Z,95.73
2019-01-28T17:21:30.389Z,95.48
2019-01-28T17:24:00.050Z,95.72
2019-01-28T17:26:30.518Z,95.42
2019-01-28T17:29:02.834Z,95.22
2019-01-28T17:31:44.394Z,94.67
2019-01-28T17:34:14.383Z,95.76
2019-01-28T17:36:44.187Z,95.78
2019-01-28T17:39:14.116Z,95.66
2019-01-28T17:41:43.861Z,96.32
2019-01-28T17:44:13.486Z,96.28
2019-01-28T17:46:43.221Z,96.09
2019-01-28T17:49:12.967Z,96.22
2019-01-28T17:51:42.822Z,96.31
2019-01-28T17:54:12.598Z,96.02
2019-01-28T17:56:42.185Z,95.86
2019-01-28T17:59:11.929Z,95.81
2019-01-28T18:01:41.632Z,96.17
2019-01-28T18:04:11.293Z,95.74
2019-01-28T18:06:41.037Z,95.44
2019-01-28T18:09:10.846Z,95.34
2019-01-28T18:11:40.458Z,95.11
2019-01-28T18:14:10.164Z,95.58
2019-01-28T18:16:39.792Z,95.56
2019-01-28T18:19:09.447Z,95.55
2019-01-28T18:21:39.115Z,96.48
2019-01-28T18:24:08.840Z,96.10
2019-01-28T18:26:38.599Z,96.48
2019-01-28T18:29:11.361Z,96.38
2019-01-28T18:31:40.946Z,96.25
2019-01-28T18:34:10.605Z,96.46
2019-01-28T18:36:40.190Z,96.96
2019-01-28T18:39:11.923Z,96.54
2019-01-28T18:41:41.491Z,96.49
2019-01-28T18:44:11.114Z,96.36
2019-01-28T18:46:40.725Z,96.03
2019-01-28T18:49:10.363Z,95.83
2019-01-28T18:51:40.062Z,95.54
2019-01-28T18:54:09.680Z,95.11
2019-01-28T18:56:39.372Z,95.80
2019-01-28T18:59:09.070Z,95.71
2019-01-28T19:01:38.660Z,96.22
2019-01-28T19:04:08.587Z,95.58
2019-01-28T19:06:51.260Z,95.62
2019-01-28T19:09:46.155Z,95.69
2019-01-28T19:12:24.890Z,95.43
2019-01-28T19:15:25.757Z,95.87
2019-01-28T19:18:05.709Z,96.02
2019-01-28T19:20:54.375Z,96.26
2019-01-28T19:23:24.022Z,95.69
2019-01-28T19:25:53.633Z,95.70
2019-01-28T19:28:23.367Z,95.60
2019-01-28T19:30:52.972Z,95.32
2019-01-28T19:33:22.612Z,95.44
2019-01-28T19:35:52.280Z,95.32
2019-01-28T19:38:22.484Z,94.83
2019-01-28T19:40:52.191Z,95.39
2019-01-28T19:43:21.946Z,94.51
2019-01-28T19:45:51.706Z,94.30
2019-01-28T19:48:21.359Z,94.60
2019-01-28T19:50:51.043Z,95.03
2019-01-28T19:53:20.922Z,95.22
2019-01-28T19:55:50.634Z,95.12
2019-01-28T19:58:20.258Z,95.02
2019-01-28T20:00:49.964Z,95.13
2019-01-28T20:03:19.702Z,95.22
2019-01-28T20:05:49.490Z,95.32
2019-01-28T20:08:19.187Z,95.17
2019-01-28T20:10:48.931Z,95.91
2019-01-28T20:13:18.616Z,95.91
2019-01-28T20:15:48.303Z,95.40
2019-01-28T20:18:18.537Z,96.54
2019-01-28T20:20:48.129Z,97.16
2019-01-28T20:23:18.664Z,96.51
2019-01-28T20:25:48.301Z,96.71
2019-01-28T20:28:18.050Z,96.92
2019-01-28T20:30:47.723Z,96.03
2019-01-28T20:33:20.396Z,95.72
2019-01-28T20:35:50.107Z,96.27
2019-01-28T20:38:19.860Z,95.97
2019-01-28T20:40:49.481Z,96.71
2019-01-28T20:43:23.930Z,96.66
2019-01-28T20:45:50.521Z,96.85
2019-01-28T20:48:20.115Z,96.14
2019-01-28T20:50:49.763Z,95.48
2019-01-28T20:53:19.464Z,96.43
2019-01-28T20:55:49.126Z,96.52
2019-01-28T20:58:18.708Z,95.92
2019-01-28T21:00:50.036Z,95.76
2019-01-28T21:03:22.319Z,95.63
2019-01-28T21:05:51.956Z,95.51
2019-01-28T21:08:22.489Z,95.13
2019-01-28T21:10:52.236Z,94.71
2019-01-28T21:13:21.901Z,95.22
2019-01-28T21:15:51.551Z,95.24
2019-01-28T21:18:21.238Z,95.29
2019-01-28T21:20:50.998Z,94.96
2019-01-28T21:23:20.692Z,94.56
2019-01-28T21:25:50.303Z,94.18
2019-01-28T21:28:19.990Z,94.34
2019-01-28T21:30:49.847Z,93.54
2019-01-28T21:33:19.443Z,93.64
2019-01-28T21:36:06.971Z,93.47
2019-01-28T21:38:43.334Z,93.34
2019-01-28T21:41:13.231Z,93.65
2019-01-28T21:43:43.035Z,93.81
2019-01-28T21:46:12.793Z,93.67
2019-01-28T21:48:42.503Z,93.42
2019-01-28T21:51:12.165Z,93.30
2019-01-28T21:53:41.761Z,92.81
2019-01-28T21:56:11.407Z,92.90
2019-01-28T21:58:41.041Z,92.66
2019-01-28T22:01:10.670Z,92.65
2019-01-28T22:03:40.297Z,92.07
2019-01-28T22:06:10.001Z,91.63
2019-01-28T22:08:39.573Z,91.70
2019-01-28T22:11:09.151Z,91.81
2019-01-28T22:13:38.762Z,91.82
2019-01-28T22:16:08.341Z,92.08
2019-01-28T22:18:37.945Z,91.30
2019-01-28T22:21:12.791Z,91.42
2019-01-28T22:23:42.875Z,90.91
2019-01-28T22:26:12.533Z,90.60
2019-01-28T22:28:42.179Z,90.26
2019-01-28T22:31:11.903Z,90.64
2019-01-28T22:33:41.459Z,90.25
2019-01-28T22:36:11.160Z,90.45
2019-01-28T22:38:41.414Z,90.13
2019-01-28T22:41:11.309Z,90.14
2019-01-28T22:43:40.865Z,90.55
2019-01-28T22:46:10.571Z,90.36
2019-01-28T22:48:40.197Z,90.46
2019-01-28T22:51:09.819Z,91.14
2019-01-28T22:53:39.417Z,90.76
2019-01-28T22:56:09.212Z,90.20
2019-01-28T22:58:38.778Z,90.31
2019-01-28T23:01:35.064Z,90.18
2019-01-28T23:08:05.241Z,90.40
2019-01-28T23:10:35.393Z,90.77
2019-01-28T23:13:05.935Z,90.98
2019-01-28T23:15:35.943Z,90.02
2019-01-28T23:18:06.499Z,90.37
2019-01-28T23:20:36.613Z,91.14
2019-01-28T23:23:06.953Z,91.24
2019-01-28T23:25:36.908Z,91.40
2019-01-28T23:28:07.226Z,91.13
2019-01-28T23:30:37.414Z,90.95
2019-01-28T23:33:07.590Z,90.48
2019-01-28T23:35:37.622Z,90.85
2019-01-28T23:38:07.623Z,91.17
2019-01-28T23:40:37.748Z,91.08
2019-01-28T23:43:08.351Z,91.00
2019-01-28T23:45:38.388Z,91.36
2019-01-28T23:48:08.514Z,91.06
2019-01-28T23:50:38.508Z,91.43
2019-01-28T23:53:08.565Z,90.74
2019-01-28T23:55:38.566Z,90.95
2019-01-28T23:58:11.266Z,91.14
